Time;durP1;ratioP1;P1;durP2;ratioP2;P2;SDS_P1;SDS_P2;PMS_P1;PMS_P2;Temp;Humidity;BMP_temperature;BMP_pressure;BME280_temperature;BME280_humidity;BME280_pressure;Samples;Min_cycle;Max_cycle;Signal;HPM_P1;HPM_P2
2021/05/25 00:02:11;;;;;;;2.93;2.63;;;13.10;99.90;;;;;;5055469;28;20207;-62
2021/05/25 00:04:37;;;;;;;5.03;3.43;;;12.90;99.90;;;;;;5055074;28;20651;-62
2021/05/25 00:07:02;;;;;;;3.80;2.97;;;12.80;99.90;;;;;;5037707;28;20740;-62
2021/05/25 00:09:28;;;;;;;3.93;2.70;;;12.80;99.90;;;;;;5055012;28;20204;-62
2021/05/25 00:11:56;;;;;;;6.43;3.63;;;12.80;99.90;;;;;;5055246;28;20227;-62
2021/05/25 00:14:22;;;;;;;3.65;3.20;;;12.70;99.90;;;;;;5054752;28;20272;-62
2021/05/25 00:16:50;;;;;;;4.60;3.35;;;12.80;99.90;;;;;;5055170;28;20502;-62
2021/05/25 00:19:16;;;;;;;5.22;4.10;;;12.80;99.90;;;;;;5055614;28;20557;-62
2021/05/25 00:21:42;;;;;;;5.68;3.40;;;12.80;99.90;;;;;;5055381;28;20743;-62
2021/05/25 00:24:08;;;;;;;5.00;3.80;;;12.70;99.90;;;;;;5054797;28;20177;-62
2021/05/25 00:26:34;;;;;;;6.27;4.27;;;12.70;99.90;;;;;;5054939;28;20246;-62
2021/05/25 00:28:59;;;;;;;3.67;3.20;;;12.80;99.90;;;;;;5055179;28;20301;-62
2021/05/25 00:31:25;;;;;;;2.70;2.50;;;12.80;99.90;;;;;;5054964;28;20423;-62
2021/05/25 00:33:50;;;;;;;5.13;2.73;;;12.60;99.90;;;;;;5054745;28;20292;-62
2021/05/25 00:36:16;;;;;;;2.80;2.40;;;12.60;99.90;;;;;;5055128;28;20212;-61
2021/05/25 00:38:42;;;;;;;2.80;2.50;;;12.70;99.90;;;;;;5054914;28;20197;-62
2021/05/25 00:41:08;;;;;;;2.33;2.13;;;12.80;99.90;;;;;;5054642;28;20441;-62
2021/05/25 00:43:33;;;;;;;3.83;2.47;;;12.70;99.90;;;;;;5054655;28;20209;-66
2021/05/25 00:45:59;;;;;;;2.57;2.33;;;12.70;99.90;;;;;;5054320;28;20184;-66
2021/05/25 00:48:25;;;;;;;4.00;2.50;;;12.60;99.90;;;;;;5054566;28;20521;-66
2021/05/25 00:50:50;;;;;;;4.77;3.13;;;12.60;99.90;;;;;;5054565;28;20192;-66
2021/05/25 00:53:16;;;;;;;2.80;1.90;;;12.50;99.90;;;;;;5054196;28;20584;-66
2021/05/25 00:55:44;;;;;;;2.57;2.20;;;12.50;99.90;;;;;;5054014;28;20184;-66
2021/05/25 00:58:10;;;;;;;3.25;2.30;;;12.60;99.90;;;;;;5054370;28;20276;-66
2021/05/25 01:00:42;;;;;;;3.28;2.58;;;12.30;99.90;;;;;;5054513;28;20187;-66
2021/05/25 01:03:09;;;;;;;3.95;2.83;;;12.30;99.90;;;;;;5053941;28;20645;-66
2021/05/25 01:05:35;;;;;;;2.40;2.20;;;12.20;99.90;;;;;;5054166;28;20660;-66
2021/05/25 01:08:01;;;;;;;2.80;2.60;;;12.10;99.90;;;;;;5054089;28;20354;-66
2021/05/25 01:10:31;;;;;;;4.43;3.00;;;12.10;99.90;;;;;;5054016;28;20215;-66
2021/05/25 01:13:06;;;;;;;4.03;3.40;;;12.10;99.90;;;;;;5053954;28;20169;-66
2021/05/25 01:15:33;;;;;;;3.15;2.60;;;11.90;99.90;;;;;;5053627;28;20172;-66
2021/05/25 01:17:59;;;;;;;5.80;3.40;;;12.00;99.90;;;;;;5053893;28;20683;-63
2021/05/25 01:20:29;;;;;;;3.55;3.22;;;12.00;99.90;;;;;;5053790;28;20609;-62
2021/05/25 01:22:55;;;;;;;5.47;3.28;;;12.00;99.90;;;;;;5053588;28;20234;-62
2021/05/25 01:25:22;;;;;;;3.33;3.03;;;12.20;99.90;;;;;;5053510;28;20191;-62
2021/05/25 01:27:52;;;;;;;2.90;2.70;;;12.30;99.90;;;;;;5053996;28;20520;-62
2021/05/25 01:30:19;;;;;;;4.50;3.60;;;12.20;99.90;;;;;;5053791;28;20173;-62
2021/05/25 01:32:48;;;;;;;3.22;3.03;;;12.30;99.90;;;;;;5053739;28;20172;-62
2021/05/25 01:35:14;;;;;;;4.30;3.15;;;12.30;99.90;;;;;;5053221;28;20560;-62
2021/05/25 01:37:39;;;;;;;6.00;3.35;;;12.30;99.90;;;;;;5053351;28;20531;-62
2021/05/25 01:40:06;;;;;;;2.93;2.67;;;12.30;99.90;;;;;;5053399;28;20176;-62
2021/05/25 01:42:34;;;;;;;3.40;3.10;;;12.40;99.90;;;;;;5053497;28;20438;-62
2021/05/25 01:45:00;;;;;;;5.82;3.63;;;12.40;99.90;;;;;;5053019;28;20220;-62
2021/05/25 01:47:25;;;;;;;3.25;3.03;;;12.40;99.90;;;;;;5053468;28;20192;-62
2021/05/25 01:49:51;;;;;;;3.93;3.23;;;12.30;99.90;;;;;;5053276;28;20204;-62
2021/05/25 01:52:19;;;;;;;3.73;3.00;;;12.30;99.90;;;;;;5053176;28;20184;-67
2021/05/25 01:54:45;;;;;;;3.70;2.90;;;12.30;99.90;;;;;;5052728;28;20554;-67
2021/05/25 01:57:10;;;;;;;3.67;3.40;;;12.30;99.90;;;;;;5053417;28;20576;-68
2021/05/25 01:59:39;;;;;;;3.87;3.43;;;12.30;99.90;;;;;;5053304;28;20208;-68
2021/05/25 02:02:04;;;;;;;4.28;3.10;;;12.20;99.90;;;;;;5053086;28;20187;-67
2021/05/25 02:04:32;;;;;;;3.53;2.93;;;12.20;99.90;;;;;;5052126;28;20181;-67
2021/05/25 02:06:58;;;;;;;3.15;2.95;;;12.20;99.90;;;;;;5053088;28;20560;-67
2021/05/25 02:09:24;;;;;;;3.65;3.35;;;12.20;99.90;;;;;;5053057;28;20204;-67
2021/05/25 02:11:49;;;;;;;3.83;3.30;;;12.00;99.90;;;;;;5053066;28;20218;-67
2021/05/25 02:14:15;;;;;;;3.30;3.00;;;11.90;99.90;;;;;;5052570;28;20176;-67
2021/05/25 02:16:41;;;;;;;3.67;3.10;;;12.00;99.90;;;;;;5053124;28;20511;-67
2021/05/25 02:19:06;;;;;;;4.37;3.30;;;11.90;99.90;;;;;;5053271;28;20197;-67
2021/05/25 02:21:32;;;;;;;4.57;3.83;;;12.00;99.90;;;;;;5053101;28;20181;-67
2021/05/25 02:23:57;;;;;;;3.80;3.40;;;11.90;99.90;;;;;;5052639;28;20185;-62
2021/05/25 02:26:23;;;;;;;3.43;3.10;;;12.00;99.90;;;;;;5052936;28;20188;-62
2021/05/25 02:28:49;;;;;;;5.38;3.38;;;11.90;99.90;;;;;;5053025;28;20208;-62
2021/05/25 02:31:15;;;;;;;3.93;3.57;;;11.90;99.90;;;;;;5053058;28;20680;-62
2021/05/25 02:33:41;;;;;;;4.20;3.33;;;12.00;99.90;;;;;;5052821;28;20187;-62
2021/05/25 02:36:07;;;;;;;2.80;2.35;;;12.00;99.90;;;;;;5052810;28;20181;-62
2021/05/25 02:38:34;;;;;;;3.47;3.00;;;12.00;99.90;;;;;;5053090;28;20574;-62
2021/05/25 02:41:00;;;;;;;3.13;2.90;;;11.90;99.90;;;;;;5052889;28;20230;-62
2021/05/25 02:43:27;;;;;;;3.85;3.10;;;12.10;99.90;;;;;;5052979;28;20188;-62
2021/05/25 02:45:53;;;;;;;3.53;3.17;;;12.40;99.90;;;;;;5052549;28;20185;-62
2021/05/25 02:48:19;;;;;;;5.67;2.90;;;12.50;99.90;;;;;;5052573;28;20211;-62
2021/05/25 02:50:45;;;;;;;3.30;3.00;;;12.50;99.90;;;;;;5052710;28;20423;-62
2021/05/25 02:53:12;;;;;;;3.00;2.70;;;12.40;99.90;;;;;;5052474;28;20177;-62
2021/05/25 02:55:40;;;;;;;2.30;2.10;;;12.20;99.90;;;;;;5034820;28;20974;-62
2021/05/25 02:58:07;;;;;;;3.90;3.33;;;12.30;99.90;;;;;;5052933;28;20563;-62
2021/05/25 03:00:36;;;;;;;3.92;3.10;;;12.10;99.90;;;;;;5052513;28;20617;-62
2021/05/25 03:03:02;;;;;;;3.92;2.60;;;11.90;99.90;;;;;;5034983;28;20181;-62
2021/05/25 03:05:28;;;;;;;2.88;2.58;;;11.90;99.90;;;;;;5052324;28;20181;-62
2021/05/25 03:07:55;;;;;;;4.43;2.87;;;11.70;99.90;;;;;;5052324;28;20193;-62
2021/05/25 03:10:24;;;;;;;6.03;3.03;;;11.70;99.90;;;;;;5050622;28;20268;-62
2021/05/25 03:12:51;;;;;;;5.00;3.10;;;11.60;99.90;;;;;;5052125;28;20184;-62
2021/05/25 03:15:23;;;;;;;4.05;2.88;;;11.60;99.90;;;;;;5051708;28;20168;-62
2021/05/25 03:17:49;;;;;;;3.33;2.92;;;11.60;99.90;;;;;;5054608;28;20283;-66
2021/05/25 03:20:16;;;;;;;3.40;3.10;;;11.80;99.90;;;;;;5056163;28;20586;-66
2021/05/25 03:22:42;;;;;;;3.47;3.10;;;11.80;99.90;;;;;;5055956;28;20208;-66
2021/05/25 03:25:10;;;;;;;3.40;3.10;;;11.90;99.90;;;;;;5055541;28;20264;-66
2021/05/25 03:27:37;;;;;;;3.45;3.15;;;11.80;99.90;;;;;;5055932;28;20644;-65
2021/05/25 03:30:05;;;;;;;4.10;3.00;;;11.90;99.90;;;;;;5056050;28;20216;-66
2021/05/25 03:32:31;;;;;;;3.38;3.08;;;11.90;99.90;;;;;;5056194;28;20176;-66
2021/05/25 03:34:57;;;;;;;4.20;2.83;;;11.80;99.90;;;;;;5055284;28;20199;-66
2021/05/25 03:37:25;;;;;;;3.77;3.47;;;11.60;99.90;;;;;;5055909;28;20195;-65
2021/05/25 03:39:51;;;;;;;4.00;3.60;;;11.50;99.90;;;;;;5055979;28;20303;-65
2021/05/25 03:42:17;;;;;;;3.00;2.80;;;11.50;99.90;;;;;;5038126;28;20639;-65
2021/05/25 03:44:43;;;;;;;2.87;2.60;;;11.40;99.90;;;;;;5055158;28;20190;-65
2021/05/25 03:47:09;;;;;;;4.22;2.92;;;11.30;99.90;;;;;;5038099;28;20191;-65
2021/05/25 03:49:35;;;;;;;4.10;3.57;;;11.40;99.90;;;;;;5055669;28;20519;-65
2021/05/25 03:52:01;;;;;;;4.30;2.90;;;11.60;99.90;;;;;;5055423;28;20500;-65
2021/05/25 03:54:33;;;;;;;2.97;2.77;;;11.60;99.90;;;;;;5054788;28;20255;-65
2021/05/25 03:57:06;;;;;;;2.70;2.50;;;11.50;99.90;;;;;;5055270;28;20487;-64
2021/05/25 03:59:32;;;;;;;3.97;2.92;;;11.60;99.90;;;;;;5055404;28;20205;-65
2021/05/25 04:01:58;;;;;;;3.47;2.77;;;11.80;99.90;;;;;;5055516;28;20204;-66
2021/05/25 04:04:23;;;;;;;3.03;2.73;;;11.70;99.90;;;;;;5037150;28;20187;-66
2021/05/25 04:06:49;;;;;;;2.77;2.57;;;11.60;99.90;;;;;;5055282;28;20188;-65
2021/05/25 04:09:16;;;;;;;2.33;2.20;;;11.80;99.90;;;;;;5054814;28;20219;-64
2021/05/25 04:11:43;;;;;;;2.90;2.63;;;11.90;99.90;;;;;;5054963;28;20181;-61
2021/05/25 04:14:09;;;;;;;3.17;2.97;;;12.10;99.90;;;;;;5054474;28;20176;-61
2021/05/25 04:16:39;;;;;;;3.60;2.70;;;12.00;99.90;;;;;;5054912;28;20593;-61
2021/05/25 04:19:04;;;;;;;2.92;2.72;;;12.00;99.90;;;;;;5055322;28;20523;-61
2021/05/25 04:21:30;;;;;;;3.43;2.93;;;11.90;99.90;;;;;;5054963;28;20208;-61
2021/05/25 04:23:55;;;;;;;3.57;2.70;;;11.80;99.90;;;;;;5054338;28;20200;-61
2021/05/25 04:26:21;;;;;;;4.00;2.80;;;11.90;99.90;;;;;;5037308;28;20204;-61
2021/05/25 04:28:46;;;;;;;3.00;2.30;;;11.90;99.90;;;;;;5054397;28;20554;-61
2021/05/25 04:31:12;;;;;;;2.87;2.33;;;11.80;99.90;;;;;;5054697;28;20185;-61
2021/05/25 04:33:38;;;;;;;2.30;2.10;;;11.80;99.90;;;;;;5054469;28;20250;-61
2021/05/25 04:36:04;;;;;;;2.33;1.80;;;11.50;99.90;;;;;;5054272;28;20662;-61
2021/05/25 04:38:29;;;;;;;1.98;1.80;;;11.50;99.90;;;;;;5054640;28;20217;-61
2021/05/25 04:40:55;;;;;;;1.80;1.70;;;11.60;99.90;;;;;;5037231;28;20668;-61
2021/05/25 04:43:20;;;;;;;1.57;1.47;;;11.60;99.90;;;;;;5036932;28;20512;-62
2021/05/25 04:45:47;;;;;;;3.57;1.93;;;11.50;99.90;;;;;;5054170;28;20177;-62
2021/05/25 04:48:12;;;;;;;2.38;2.03;;;11.50;99.90;;;;;;5054511;28;20278;-61
2021/05/25 04:50:39;;;;;;;2.23;2.03;;;11.60;99.90;;;;;;5054417;28;20635;-61
2021/05/25 04:53:05;;;;;;;2.20;1.83;;;11.60;99.90;;;;;;5054302;28;20256;-61
2021/05/25 04:55:31;;;;;;;2.47;1.83;;;11.50;99.90;;;;;;5054000;28;20265;-61
2021/05/25 04:57:56;;;;;;;4.30;3.63;;;11.50;99.90;;;;;;5054618;28;20423;-61
2021/05/25 05:00:25;;;;;;;2.37;2.17;;;11.70;99.90;;;;;;5054412;28;20177;-61
2021/05/25 05:02:50;;;;;;;4.93;2.72;;;11.60;99.90;;;;;;5054252;28;20176;-61
2021/05/25 05:05:16;;;;;;;2.20;2.00;;;11.70;99.90;;;;;;5053437;28;20582;-61
2021/05/25 05:07:42;;;;;;;2.17;1.93;;;11.60;99.90;;;;;;5054156;28;20173;-61
2021/05/25 05:10:08;;;;;;;2.83;2.37;;;11.70;99.90;;;;;;5054229;28;20463;-61
2021/05/25 05:12:34;;;;;;;3.00;2.70;;;11.70;99.90;;;;;;5036646;28;20184;-61
2021/05/25 05:15:00;;;;;;;2.58;2.35;;;11.90;99.90;;;;;;5053787;28;20180;-61
2021/05/25 05:17:27;;;;;;;3.77;2.67;;;11.90;99.90;;;;;;5053910;28;20189;-61
2021/05/25 05:19:54;;;;;;;2.63;2.42;;;12.10;99.90;;;;;;5053925;28;20228;-61
2021/05/25 05:22:20;;;;;;;5.03;3.25;;;12.20;99.90;;;;;;5053866;28;20200;-61
2021/05/25 05:24:46;;;;;;;4.85;3.60;;;12.40;99.90;;;;;;5053319;28;20189;-61
2021/05/25 05:27:12;;;;;;;3.08;2.78;;;12.60;99.90;;;;;;5053893;28;20169;-61
2021/05/25 05:29:38;;;;;;;5.07;3.67;;;12.90;99.90;;;;;;5053551;28;20595;-61
2021/05/25 05:32:06;;;;;;;3.43;3.13;;;12.90;99.90;;;;;;5053637;28;20177;-61
2021/05/25 05:34:32;;;;;;;3.95;3.25;;;13.20;99.90;;;;;;5052977;28;20189;-61
2021/05/25 05:36:58;;;;;;;4.22;3.40;;;13.20;56.50;;;;;;5053750;28;20177;-61
2021/05/25 05:39:24;;;;;;;5.87;4.40;;;12.80;80.90;;;;;;5052787;28;20191;-61
2021/05/25 05:41:49;;;;;;;5.77;4.60;;;12.60;99.90;;;;;;5053496;28;20485;-62
2021/05/25 05:44:15;;;;;;;6.03;5.17;;;12.70;99.90;;;;;;5053026;28;20173;-62
2021/05/25 05:46:41;;;;;;;7.80;4.43;;;13.00;99.90;;;;;;5053364;28;20519;-63
2021/05/25 05:49:06;;;;;;;5.67;5.17;;;13.00;99.90;;;;;;5053699;28;20235;-62
2021/05/25 05:51:32;;;;;;;5.83;4.70;;;13.10;99.50;;;;;;5053162;28;20181;-62
2021/05/25 05:53:58;;;;;;;5.50;4.80;;;13.20;81.10;;;;;;5052712;28;20670;-62
2021/05/25 05:56:24;;;;;;;7.17;5.47;;;13.10;12.50;;;;;;5053243;28;20184;-62
2021/05/25 05:58:50;;;;;;;5.55;5.05;;;13.00;8.80;;;;;;5053334;28;20484;-62
2021/05/25 06:01:16;;;;;;;5.22;4.80;;;13.00;79.00;;;;;;5053226;28;20188;-62
2021/05/25 06:03:44;;;;;;;6.10;5.50;;;12.40;97.40;;;;;;5052613;28;20613;-62
2021/05/25 06:06:11;;;;;;;5.32;4.82;;;12.10;99.90;;;;;;5052872;28;20639;-62
2021/05/25 06:08:37;;;;;;;5.25;4.60;;;12.40;99.90;;;;;;5052853;28;20649;-62
2021/05/25 06:11:03;;;;;;;4.40;4.00;;;11.90;99.90;;;;;;5052931;28;20173;-62
2021/05/25 06:13:29;;;;;;;4.35;4.03;;;11.70;99.90;;;;;;5052560;28;20173;-62
2021/05/25 06:15:58;;;;;;;4.90;4.40;;;11.60;99.90;;;;;;5052442;28;20279;-62
2021/05/25 06:18:24;;;;;;;6.28;3.72;;;11.50;99.90;;;;;;5052736;28;20458;-62
2021/05/25 06:20:50;;;;;;;6.43;4.57;;;11.50;99.90;;;;;;5052789;28;20184;-62
2021/05/25 06:23:15;;;;;;;7.83;3.93;;;11.60;99.90;;;;;;5052539;28;20429;-62
2021/05/25 06:25:41;;;;;;;6.03;5.40;;;11.60;99.90;;;;;;5052556;28;20569;-62
2021/05/25 06:28:07;;;;;;;4.37;4.03;;;11.60;99.90;;;;;;5052947;28;20177;-60
2021/05/25 06:30:33;;;;;;;5.35;4.10;;;11.60;99.90;;;;;;5053222;28;20187;-62
2021/05/25 06:32:59;;;;;;;14.17;6.50;;;11.70;99.90;;;;;;5052583;28;20173;-60
2021/05/25 06:35:25;;;;;;;8.97;5.23;;;11.90;99.90;;;;;;5051955;28;20230;-60
2021/05/25 06:37:50;;;;;;;5.47;5.00;;;12.30;99.90;;;;;;5052706;28;20419;-60
2021/05/25 06:40:16;;;;;;;4.73;4.43;;;12.50;99.90;;;;;;5052396;28;20419;-61
2021/05/25 06:42:42;;;;;;;6.50;5.90;;;12.60;36.40;;;;;;5052891;28;20267;-60
2021/05/25 06:45:09;;;;;;;5.60;5.10;;;12.70;86.60;;;;;;5051921;28;20573;-60
2021/05/25 06:47:38;;;;;;;4.90;4.50;;;12.70;49.70;;;;;;5052224;28;20184;-60
2021/05/25 06:50:06;;;;;;;6.03;5.10;;;13.40;51.30;;;;;;5052672;28;20558;-61
2021/05/25 06:52:32;;;;;;;6.32;5.13;;;13.60;1.00;;;;;;5035213;28;20181;-67
2021/05/25 06:54:59;;;;;;;6.70;4.87;;;13.50;1.00;;;;;;5052109;28;20173;-64
2021/05/25 06:57:25;;;;;;;6.13;5.55;;;13.50;1.00;;;;;;5035638;28;20212;-66
2021/05/25 06:59:51;;;;;;;5.57;5.07;;;13.40;1.00;;;;;;5053627;28;20227;-67
2021/05/25 07:02:16;;;;;;;5.05;4.65;;;13.40;1.00;;;;;;5053809;28;20181;-69
2021/05/25 07:04:45;;;;;;;5.40;4.90;;;13.50;1.00;;;;;;5055822;28;20498;-70
2021/05/25 07:07:10;;;;;;;5.45;4.93;;;13.60;1.00;;;;;;5056527;28;20208;-69
2021/05/25 07:09:35;;;;;;;5.63;5.10;;;13.60;1.00;;;;;;5055980;28;20514;-69
2021/05/25 07:12:02;;;;;;;4.77;4.37;;;13.30;1.00;;;;;;5056097;28;20199;-69
2021/05/25 07:14:31;;;;;;;5.35;4.47;;;13.10;1.00;;;;;;5054995;28;20184;-70
2021/05/25 07:16:57;;;;;;;6.63;4.55;;;13.20;1.00;;;;;;5056047;28;20197;-70
2021/05/25 07:19:22;;;;;;;5.30;4.80;;;13.40;1.00;;;;;;5056243;28;20185;-70
2021/05/25 07:21:48;;;;;;;5.97;4.07;;;13.50;1.00;;;;;;5056361;28;20637;-70
2021/05/25 07:24:13;;;;;;;8.03;4.13;;;14.20;1.00;;;;;;5037713;28;20181;-69
2021/05/25 07:26:40;;;;;;;5.33;4.27;;;14.90;99.90;;;;;;5055873;28;20224;-69
2021/05/25 07:29:06;;;;;;;4.03;3.65;;;16.80;1.00;;;;;;5055804;28;20647;-68
2021/05/25 07:31:32;;;;;;;3.80;3.50;;;17.10;25.40;;;;;;5055552;28;20173;-69
2021/05/25 07:33:57;;;;;;;4.60;4.13;;;16.30;99.90;;;;;;5037911;28;20204;-70
2021/05/25 07:36:23;;;;;;;4.73;4.33;;;14.80;1.00;;;;;;5055775;28;20573;-70
2021/05/25 07:38:48;;;;;;;4.87;3.87;;;14.20;1.00;;;;;;5055764;28;20224;-69
2021/05/25 07:41:14;;;;;;;5.43;4.20;;;13.60;99.90;;;;;;5055695;28;20267;-69
2021/05/25 07:43:40;;;;;;;6.23;4.40;;;13.20;1.00;;;;;;5055273;28;20235;-71
2021/05/25 07:46:05;;;;;;;5.33;4.93;;;12.80;1.00;;;;;;5054968;28;20191;-71
2021/05/25 07:48:31;;;;;;;6.50;4.77;;;12.60;1.00;;;;;;5055494;28;20254;-71
2021/05/25 07:50:57;;;;;;;5.07;4.67;;;12.50;1.00;;;;;;5055399;28;20604;-72
2021/05/25 07:53:22;;;;;;;4.90;4.50;;;12.30;26.30;;;;;;5055215;28;20188;-73
2021/05/25 07:55:48;;;;;;;4.47;4.07;;;12.40;71.00;;;;;;5054934;28;20242;-72
2021/05/25 07:58:14;;;;;;;4.40;3.90;;;12.20;1.00;;;;;;5055612;28;20180;-70
2021/05/25 08:00:39;;;;;;;4.40;4.00;;;12.60;10.60;;;;;;5055340;28;20720;-71
2021/05/25 08:03:05;;;;;;;3.17;2.70;;;12.50;1.00;;;;;;5054897;28;20490;-71
2021/05/25 08:05:32;;;;;;;3.87;3.10;;;12.60;1.00;;;;;;5055175;28;20256;-71
2021/05/25 08:08:00;;;;;;;3.30;3.00;;;12.70;1.00;;;;;;5055385;28;20455;-72
2021/05/25 08:10:26;;;;;;;3.20;2.90;;;12.60;1.00;;;;;;5056919;28;20191;-72
2021/05/25 08:12:52;;;;;;;2.67;2.47;;;12.60;1.00;;;;;;5055072;28;20577;-72
2021/05/25 08:15:18;;;;;;;3.67;2.27;;;12.70;1.00;;;;;;5054479;28;20888;-71
2021/05/25 08:18:06;;;;;;;2.58;2.28;;;12.20;1.00;;;;;;5037526;28;20279;-72
2021/05/25 08:20:33;;;;;;;3.50;2.35;;;12.10;1.00;;;;;;5037156;28;20211;-72
2021/05/25 08:22:59;;;;;;;2.55;2.20;;;11.80;1.00;;;;;;5037665;28;20328;-72
2021/05/25 08:25:29;;;;;;;4.53;2.50;;;11.60;1.00;;;;;;5036728;28;20176;-71
2021/05/25 08:27:56;;;;;;;2.85;2.10;;;11.40;1.00;;;;;;5038033;28;20180;-66
2021/05/25 08:30:24;;;;;;;4.68;2.90;;;11.50;1.00;;;;;;5054657;28;20185;-66
2021/05/25 08:32:51;;;;;;;4.90;4.50;;;11.40;1.00;;;;;;5054882;28;20533;-66
2021/05/25 08:35:18;;;;;;;5.07;2.72;;;11.50;12.40;;;;;;5054689;28;20509;-67
2021/05/25 08:37:47;;;;;;;2.65;2.45;;;11.50;52.60;;;;;;5054544;28;20204;-69
2021/05/25 08:40:14;;;;;;;3.83;2.72;;;11.50;95.40;;;;;;5036810;28;20267;-69
2021/05/25 08:42:40;;;;;;;4.70;2.85;;;11.50;99.90;;;;;;5054630;28;20515;-69
2021/05/25 08:45:09;;;;;;;4.67;3.17;;;11.90;99.90;;;;;;5036393;28;20191;-69
2021/05/25 08:47:35;;;;;;;4.22;3.80;;;11.90;29.90;;;;;;5054520;28;20460;-68
2021/05/25 08:50:03;;;;;;;8.45;3.90;;;12.20;42.50;;;;;;5036775;28;20289;-69
2021/05/25 08:52:29;;;;;;;6.65;3.60;;;12.70;6.00;;;;;;5054227;28;20169;-67
2021/05/25 08:54:55;;;;;;;4.60;4.10;;;13.00;1.00;;;;;;5053587;28;20188;-68
2021/05/25 08:57:21;;;;;;;5.30;4.30;;;13.50;1.00;;;;;;5036816;28;20177;-68
2021/05/25 08:59:48;;;;;;;4.70;4.20;;;14.00;1.00;;;;;;5054273;28;20181;-72
2021/05/25 09:02:14;;;;;;;6.22;4.80;;;14.40;1.00;;;;;;5038984;28;20518;-71
2021/05/25 09:05:05;;;;;;;6.18;4.30;;;14.60;99.90;;;;;;5037985;28;20181;-70
2021/05/25 09:07:51;;;;;;;5.30;4.30;;;14.80;99.90;;;;;;5036994;28;20181;-65
2021/05/25 09:10:31;;;;;;;6.43;4.70;;;15.20;99.90;;;;;;5053934;28;20561;-67
2021/05/25 09:12:57;;;;;;;5.47;4.20;;;15.40;99.90;;;;;;5054034;28;20176;-66
2021/05/25 09:15:40;;;;;;;8.43;4.17;;;15.00;1.00;;;;;;5053111;28;20181;-64
2021/05/25 09:18:12;;;;;;;5.65;4.18;;;15.10;1.00;;;;;;5067196;28;20522;-62
2021/05/25 09:20:48;;;;;;;6.75;4.78;;;15.00;1.00;;;;;;5031384;28;20181;-64
2021/05/25 09:23:17;;;;;;;5.82;4.78;;;15.40;1.00;;;;;;5032869;28;20184;-64
2021/05/25 09:25:51;;;;;;;6.88;5.25;;;15.50;99.90;;;;;;5015989;28;20678;-64
2021/05/25 09:28:18;;;;;;;5.45;4.75;;;15.20;1.00;;;;;;5034161;28;20606;-63
2021/05/25 09:30:46;;;;;;;5.68;5.13;;;15.10;1.00;;;;;;5034740;28;20186;-64
2021/05/25 09:33:12;;;;;;;5.43;4.65;;;14.90;1.00;;;;;;5034664;28;20169;-68
2021/05/25 09:35:40;;;;;;;5.95;5.35;;;15.20;94.80;;;;;;5036450;28;20192;-68
2021/05/25 09:38:14;;;;;;;4.70;4.30;;;15.80;1.00;;;;;;5035990;28;20184;-68
2021/05/25 09:40:43;;;;;;;6.03;4.70;;;15.90;1.00;;;;;;5035491;28;20613;-68
2021/05/25 09:43:14;;;;;;;5.13;4.20;;;16.00;19.80;;;;;;5035761;28;20428;-68
2021/05/25 09:45:55;;;;;;;6.55;3.38;;;15.30;1.00;;;;;;5036481;28;20751;-68
2021/05/25 09:48:32;;;;;;;3.30;3.00;;;14.70;1.00;;;;;;5035093;28;20603;-66
2021/05/25 09:50:59;;;;;;;3.42;2.40;;;14.70;1.00;;;;;;5033242;28;20174;-66
2021/05/25 09:53:28;;;;;;;3.47;2.65;;;15.30;99.90;;;;;;5033126;28;20197;-66
2021/05/25 09:55:54;;;;;;;3.50;2.60;;;15.40;1.00;;;;;;5033096;28;20173;-66
2021/05/25 09:58:35;;;;;;;4.43;2.90;;;15.50;1.00;;;;;;5033145;28;20526;-66
2021/05/25 10:01:06;;;;;;;6.07;2.40;;;15.90;99.90;;;;;;5050436;28;20195;-67
2021/05/25 10:03:35;;;;;;;2.90;2.10;;;16.60;99.90;;;;;;5053120;28;20415;-66
2021/05/25 10:06:02;;;;;;;3.43;2.53;;;17.10;1.00;;;;;;5052650;28;20419;-67
2021/05/25 10:08:32;;;;;;;2.80;2.13;;;17.10;1.00;;;;;;5054617;28;20459;-67
2021/05/25 10:10:58;;;;;;;3.20;2.60;;;17.10;1.00;;;;;;5054747;28;20415;-67
2021/05/25 10:13:27;;;;;;;2.60;1.90;;;17.10;1.00;;;;;;5053835;28;20415;-67
2021/05/25 10:15:53;;;;;;;3.70;1.83;;;16.90;1.00;;;;;;5054070;28;20423;-67
2021/05/25 10:21:13;;;;;;;2.03;0.80;;;15.40;99.90;;;;;;5024265;28;20188;-67
2021/05/25 10:23:42;;;;;;;2.40;1.10;;;15.00;99.90;;;;;;5054898;28;20177;-67
2021/05/25 10:26:23;;;;;;;3.40;1.90;;;15.20;1.00;;;;;;5056778;28;20234;-67
2021/05/25 10:28:53;;;;;;;3.10;1.90;;;15.40;1.00;;;;;;5056644;28;20585;-69
2021/05/25 10:31:35;;;;;;;2.40;1.42;;;15.20;1.00;;;;;;5054553;28;20852;-63
2021/05/25 10:34:23;;;;;;;2.72;2.03;;;14.80;1.00;;;;;;5056539;28;20205;-67
2021/05/25 10:36:49;;;;;;;2.30;1.80;;;14.60;99.90;;;;;;5055856;28;20609;-67
2021/05/25 10:39:37;;;;;;;3.43;1.90;;;15.20;99.90;;;;;;5056717;28;20431;-67
2021/05/25 10:42:18;;;;;;;3.10;2.10;;;16.00;1.00;;;;;;5036083;28;20438;-65
2021/05/25 10:44:49;;;;;;;3.20;1.17;;;16.30;99.90;;;;;;5054121;28;20434;-66
2021/05/25 10:47:27;;;;;;;2.60;1.30;;;16.60;99.90;;;;;;5054404;28;20422;-65
2021/05/25 10:49:53;;;;;;;5.93;1.50;;;17.00;99.90;;;;;;5053799;28;20467;-66
2021/05/25 10:52:19;;;;;;;2.87;1.50;;;16.90;99.90;;;;;;5054637;28;20435;-66
2021/05/25 10:54:48;;;;;;;4.30;1.70;;;16.90;83.20;;;;;;5053713;28;20423;-68
2021/05/25 10:57:37;;;;;;;2.63;1.00;;;16.80;1.00;;;;;;5053544;28;20180;-68
2021/05/25 11:00:05;;;;;;;2.10;1.00;;;16.90;1.00;;;;;;5053317;28;20427;-69
2021/05/25 11:02:48;;;;;;;2.40;1.30;;;16.70;1.00;;;;;;5053122;28;20904;-63
2021/05/25 11:05:37;;;;;;;4.30;1.40;;;16.60;1.00;;;;;;5052603;28;20547;-62
2021/05/25 11:08:09;;;;;;;2.20;1.57;;;16.30;1.00;;;;;;5031522;28;20431;-69
2021/05/25 11:10:37;;;;;;;1.30;1.00;;;16.90;32.00;;;;;;5054035;28;20466;-67
2021/05/25 11:13:18;;;;;;;2.30;1.53;;;17.40;1.00;;;;;;5054399;28;20434;-67
2021/05/25 11:16:06;;;;;;;2.17;1.13;;;16.50;1.00;;;;;;5052838;28;20443;-66
2021/05/25 11:19:19;;;;;;;4.60;1.57;;;15.90;22.20;;;;;;5055030;28;20454;-68
2021/05/25 11:24:28;;;;;;;4.63;1.70;;;15.90;1.00;;;;;;5043674;28;20447;-68
2021/05/25 11:27:08;;;;;;;1.20;0.93;;;15.80;1.00;;;;;;5053462;28;20435;-66
2021/05/25 11:29:53;;;;;;;2.50;1.20;;;15.80;1.00;;;;;;5035440;28;20808;-64
2021/05/25 11:32:23;;;;;;;1.30;1.20;;;16.30;1.00;;;;;;5053121;28;20427;-63
2021/05/25 11:35:04;;;;;;;2.33;1.30;;;16.80;1.00;;;;;;5031373;28;20447;-62
2021/05/25 11:37:39;;;;;;;2.93;1.53;;;17.30;1.00;;;;;;5043937;28;20453;-63
2021/05/25 11:40:10;;;;;;;2.00;1.10;;;17.60;1.00;;;;;;5057071;28;20426;-63
2021/05/25 11:42:36;;;;;;;1.20;1.10;;;17.10;1.00;;;;;;5048449;28;20427;-64
2021/05/25 11:45:03;;;;;;;1.67;1.33;;;16.90;1.00;;;;;;5038037;28;20616;-63
2021/05/25 11:47:29;;;;;;;3.23;1.17;;;17.60;1.00;;;;;;5055999;28;20219;-62
2021/05/25 11:49:55;;;;;;;1.60;1.10;;;17.70;1.00;;;;;;5056356;28;20506;-62
2021/05/25 11:52:30;;;;;;;2.50;1.20;;;17.70;1.00;;;;;;5056405;28;20177;-62
2021/05/25 11:55:00;;;;;;;1.67;1.50;;;17.70;1.00;;;;;;5051474;28;20431;-68
2021/05/25 11:57:29;;;;;;;1.40;1.00;;;17.70;1.00;;;;;;5045072;28;20461;-67
2021/05/25 11:59:56;;;;;;;1.97;1.23;;;18.20;1.00;;;;;;5044249;28;20457;-64
2021/05/25 12:02:30;;;;;;;2.00;1.10;;;18.30;1.00;;;;;;5035908;28;20433;-63
2021/05/25 12:05:05;;;;;;;2.53;0.80;;;17.70;1.00;;;;;;5056708;28;20419;-63
2021/05/25 12:07:30;;;;;;;3.30;1.20;;;17.50;1.00;;;;;;5057761;28;20492;-65
2021/05/25 12:09:59;;;;;;;5.20;1.40;;;17.80;1.00;;;;;;5060601;28;20466;-66
2021/05/25 12:12:26;;;;;;;1.53;1.30;;;18.30;1.00;;;;;;5061912;28;20672;-66
2021/05/25 12:14:52;;;;;;;1.50;1.00;;;18.40;1.00;;;;;;5061280;28;20419;-66
2021/05/25 12:17:22;;;;;;;1.63;1.00;;;18.70;1.00;;;;;;5044707;28;20510;-66
2021/05/25 12:19:58;;;;;;;2.13;1.20;;;18.60;1.00;;;;;;5058970;28;20424;-65
2021/05/25 12:22:38;;;;;;;1.77;1.13;;;18.10;1.00;;;;;;5058623;28;20449;-69
2021/05/25 12:25:27;;;;;;;3.10;1.57;;;18.00;1.00;;;;;;5056823;28;20431;-69
2021/05/25 12:27:56;;;;;;;1.70;1.10;;;18.10;1.00;;;;;;5059506;28;20434;-69
2021/05/25 12:30:23;;;;;;;1.90;1.40;;;17.80;1.00;;;;;;5041279;28;20940;-69
2021/05/25 12:32:50;;;;;;;1.73;0.70;;;17.90;1.00;;;;;;5042620;28;20423;-69
2021/05/25 12:35:21;;;;;;;3.80;1.23;;;18.00;1.00;;;;;;5038590;28;20451;-69
2021/05/25 12:38:04;;;;;;;2.53;1.80;;;18.00;1.00;;;;;;5056981;28;20430;-66
2021/05/25 12:40:29;;;;;;;1.00;0.90;;;18.40;1.00;;;;;;5057391;28;20419;-70
2021/05/25 12:42:55;;;;;;;1.43;1.00;;;18.40;1.00;;;;;;5056858;28;20439;-70
2021/05/25 12:45:25;;;;;;;2.97;1.27;;;18.70;1.00;;;;;;5038656;28;20525;-67
2021/05/25 12:47:52;;;;;;;3.67;1.20;;;19.10;1.00;;;;;;5060719;28;20236;-68
2021/05/25 12:50:45;;;;;;;1.83;1.20;;;19.30;1.00;;;;;;5039034;28;20471;-69
2021/05/25 12:53:18;;;;;;;2.33;1.23;;;18.40;1.00;;;;;;5056437;28;20534;-70
2021/05/25 12:55:53;;;;;;;35.53;18.47;;;17.40;1.00;;;;;;5058912;28;20815;-69
2021/05/25 12:58:43;;;;;;;1.50;1.10;;;16.90;1.00;;;;;;5061164;28;20757;-69
2021/05/25 13:01:30;;;;;;;1.70;1.10;;;16.90;1.00;;;;;;5059942;28;20455;-67
2021/05/25 13:04:01;;;;;;;1.97;0.90;;;16.10;1.90;;;;;;5041198;28;20778;-68